createdAt,value
2022-08-19T00:01:30.357Z,99885.28
2022-08-19T00:04:03.925Z,99894.78
2022-08-19T00:06:31.312Z,99881.91
2022-08-19T00:08:58.923Z,99886.53
2022-08-19T00:11:26.457Z,99895.50
2022-08-19T00:13:53.879Z,99892.91
2022-08-19T00:16:26.329Z,99887.50
2022-08-19T00:18:54.907Z,99884.03
2022-08-19T00:21:22.038Z,99884.84
2022-08-19T00:23:48.788Z,99893.41
2022-08-19T00:26:15.801Z,99889.47
2022-08-19T00:28:42.490Z,99891.34
2022-08-19T00:31:10.200Z,99892.47
2022-08-19T00:33:37.273Z,99894.38
2022-08-19T00:36:07.927Z,99885.94
2022-08-19T00:38:39.379Z,99892.28
2022-08-19T00:41:07.066Z,99887.50
2022-08-19T00:43:34.474Z,99890.03
2022-08-19T00:46:02.412Z,99889.56
2022-08-19T00:48:28.991Z,99886.03
2022-08-19T00:50:56.518Z,99886.03
2022-08-19T00:53:27.468Z,99882.84
2022-08-19T00:55:57.416Z,99892.09
2022-08-19T00:58:31.090Z,99887.94
2022-08-19T01:00:57.666Z,99886.88
2022-08-19T01:03:24.639Z,99883.03
2022-08-19T01:05:54.405Z,99887.38
2022-08-19T01:08:21.445Z,99895.97
2022-08-19T01:10:57.149Z,99898.34
2022-08-19T01:13:27.699Z,99903.94
2022-08-19T01:16:07.796Z,99905.69
2022-08-19T01:18:40.212Z,99905.69
2022-08-19T01:21:17.908Z,99920.91
2022-08-19T01:23:45.964Z,99943.16
2022-08-19T01:26:19.135Z,99945.56
2022-08-19T01:28:48.270Z,99955.75
2022-08-19T01:31:26.525Z,99954.44
2022-08-19T01:33:56.736Z,99954.13
2022-08-19T01:36:31.107Z,99955.88
2022-08-19T01:38:59.153Z,99959.38
2022-08-19T01:41:26.087Z,99969.22
2022-08-19T01:44:13.806Z,99956.03
2022-08-19T01:46:40.804Z,99960.75
2022-08-19T01:49:09.103Z,99971.06
2022-08-19T01:51:38.474Z,99973.16
2022-08-19T01:54:07.950Z,99965.06
2022-08-19T01:56:36.518Z,99966.31
2022-08-19T01:59:09.306Z,99963.16
2022-08-19T02:01:36.036Z,99975.50
2022-08-19T02:04:03.660Z,99979.56
2022-08-19T02:06:30.659Z,99977.50
2022-08-19T02:08:57.612Z,99977.31
2022-08-19T02:11:36.377Z,99973.44
2022-08-19T02:14:06.714Z,99979.16
2022-08-19T02:16:33.758Z,99981.34
2022-08-19T02:19:01.641Z,99984.03
2022-08-19T02:21:29.481Z,99988.63
2022-08-19T02:23:56.929Z,99993.97
2022-08-19T02:26:23.517Z,99999.19
2022-08-19T02:28:50.197Z,99994.72
2022-08-19T02:31:21.172Z,99989.53
2022-08-19T02:33:48.218Z,99994.38
2022-08-19T02:36:16.506Z,99997.72
2022-08-19T02:38:54.941Z,100001.88
2022-08-19T02:41:33.447Z,99998.22
2022-08-19T02:44:30.017Z,99998.50
2022-08-19T02:46:51.778Z,100000.22
2022-08-19T02:49:19.381Z,100002.25
2022-08-19T02:51:47.207Z,100006.06
2022-08-19T02:54:15.103Z,100006.81
2022-08-19T02:56:42.763Z,100011.78
2022-08-19T02:59:11.959Z,100017.00
2022-08-19T03:01:40.737Z,100016.63
2022-08-19T03:04:09.041Z,100029.16
2022-08-19T03:06:39.310Z,100022.19
2022-08-19T03:09:05.985Z,100017.06
2022-08-19T03:11:34.100Z,100026.97
2022-08-19T03:14:02.547Z,100026.19
2022-08-19T03:16:33.534Z,100025.00
2022-08-19T03:19:01.480Z,100018.94
2022-08-19T03:21:30.774Z,100022.31
2022-08-19T03:23:59.734Z,100029.28
2022-08-19T03:26:26.569Z,100029.28
2022-08-19T03:28:57.849Z,100028.00
2022-08-19T03:31:44.531Z,100027.03
2022-08-19T03:34:35.142Z,100028.19
2022-08-19T03:37:06.881Z,100029.00
2022-08-19T03:39:33.766Z,100036.25
2022-08-19T03:42:32.136Z,100037.47
2022-08-19T03:44:49.971Z,100038.38
2022-08-19T03:47:16.794Z,100032.22
2022-08-19T03:49:43.498Z,100038.13
2022-08-19T03:52:10.151Z,100031.56
2022-08-19T03:54:38.978Z,100035.81
2022-08-19T03:57:06.021Z,100036.06
2022-08-19T03:59:36.309Z,100032.63
2022-08-19T04:02:09.376Z,100037.34
2022-08-19T04:04:37.529Z,100050.06
2022-08-19T04:07:04.343Z,100042.97
2022-08-19T04:09:30.895Z,100048.09
2022-08-19T04:11:58.869Z,100057.56
2022-08-19T04:14:33.360Z,100047.44
2022-08-19T04:17:01.175Z,100041.34
2022-08-19T04:19:30.237Z,100048.63
2022-08-19T04:21:56.771Z,100046.22
2022-08-19T04:24:23.973Z,100045.44
2022-08-19T04:26:50.981Z,100055.06
2022-08-19T04:29:22.680Z,100049.03
2022-08-19T04:31:50.237Z,100056.69
2022-08-19T04:34:19.349Z,100061.06
2022-08-19T04:36:46.333Z,100062.66
2022-08-19T04:39:17.013Z,100079.66
2022-08-19T04:42:03.044Z,100073.56
2022-08-19T04:44:33.139Z,100068.22
2022-08-19T04:47:00.494Z,100084.94
2022-08-19T04:49:28.830Z,100087.63
2022-08-19T04:51:55.955Z,100088.31
2022-08-19T04:54:38.549Z,100097.53
2022-08-19T04:57:08.504Z,100094.47
2022-08-19T04:59:36.401Z,100107.81
2022-08-19T05:02:03.837Z,100102.84
2022-08-19T05:04:31.960Z,100093.16
2022-08-19T05:07:00.040Z,100091.38
2022-08-19T05:09:28.723Z,100104.78
2022-08-19T05:12:16.171Z,100107.97
2022-08-19T05:14:42.842Z,100108.63
2022-08-19T05:17:26.732Z,100099.53
2022-08-19T05:20:12.459Z,100115.84
2022-08-19T05:22:39.070Z,100120.44
2022-08-19T05:25:13.016Z,100125.16
2022-08-19T05:27:40.235Z,100131.47
2022-08-19T05:30:07.694Z,100140.03
2022-08-19T05:32:34.209Z,100137.78
2022-08-19T05:35:00.834Z,100135.66
2022-08-19T05:37:28.458Z,100137.66
2022-08-19T05:39:55.881Z,100142.06
2022-08-19T05:42:24.098Z,100141.19
2022-08-19T05:44:52.074Z,100143.16
2022-08-19T05:47:20.805Z,100138.81
2022-08-19T05:49:48.077Z,100147.22
2022-08-19T05:52:19.455Z,100140.47
2022-08-19T05:54:52.132Z,100137.66
2022-08-19T05:57:21.544Z,100138.44
2022-08-19T05:59:49.410Z,100138.13
2022-08-19T06:02:20.072Z,100151.34
2022-08-19T06:04:47.144Z,100141.41
2022-08-19T06:07:13.786Z,100144.03
2022-08-19T06:09:41.208Z,100162.38
2022-08-19T06:12:10.516Z,100148.38
2022-08-19T06:14:40.353Z,100157.50
2022-08-19T06:17:09.256Z,100158.22
2022-08-19T06:19:40.752Z,100151.63
2022-08-19T06:22:08.356Z,100158.59
2022-08-19T06:24:36.602Z,100155.91
2022-08-19T06:27:04.206Z,100165.03
2022-08-19T06:29:31.211Z,100154.72
2022-08-19T06:31:59.990Z,100154.28
2022-08-19T06:34:29.508Z,100168.22
2022-08-19T06:36:57.006Z,100166.63
2022-08-19T06:39:26.207Z,100166.25
2022-08-19T06:41:59.018Z,100163.19
2022-08-19T06:44:28.824Z,100162.09
2022-08-19T06:46:57.050Z,100166.34
2022-08-19T06:49:24.621Z,100165.78
2022-08-19T06:51:51.766Z,100170.66
2022-08-19T06:54:20.390Z,100179.00
2022-08-19T06:56:47.759Z,100175.13
2022-08-19T06:59:18.759Z,100190.34
2022-08-19T07:01:49.108Z,100188.25
2022-08-19T07:04:19.367Z,100187.00
2022-08-19T07:06:54.863Z,100190.38
2022-08-19T07:09:22.075Z,100183.44
2022-08-19T07:11:50.762Z,100184.44
2022-08-19T07:14:20.353Z,100185.63
2022-08-19T07:16:50.070Z,100186.06
2022-08-19T07:19:18.872Z,100191.22
2022-08-19T07:21:47.197Z,100186.88
2022-08-19T07:24:13.858Z,100192.47
2022-08-19T07:26:42.798Z,100194.00
2022-08-19T07:29:10.854Z,100190.84
2022-08-19T07:31:38.167Z,100188.06
2022-08-19T07:34:08.290Z,100193.25
2022-08-19T07:36:37.751Z,100186.91
2022-08-19T07:39:12.496Z,100180.03
2022-08-19T07:41:39.465Z,100192.97
2022-08-19T07:44:08.361Z,100198.84
2022-08-19T07:46:38.279Z,100212.19
2022-08-19T07:49:06.293Z,100215.88
2022-08-19T07:51:36.872Z,100214.19
2022-08-19T07:54:04.798Z,100205.63
2022-08-19T07:56:31.386Z,100214.69
2022-08-19T07:58:58.114Z,100205.72
2022-08-19T08:01:27.511Z,100205.97
2022-08-19T08:04:14.226Z,100210.53
2022-08-19T08:07:00.154Z,100213.47
2022-08-19T08:09:31.943Z,100226.81
2022-08-19T08:12:32.912Z,100222.19
2022-08-19T08:14:57.764Z,100223.84
2022-08-19T08:17:40.689Z,100229.75
2022-08-19T08:20:15.309Z,100232.97
2022-08-19T08:23:07.595Z,100226.19
2022-08-19T08:25:36.378Z,100232.38
2022-08-19T08:28:04.091Z,100230.13
2022-08-19T08:30:33.458Z,100235.97
2022-08-19T08:33:00.888Z,100234.22
2022-08-19T08:35:29.515Z,100235.63
2022-08-19T08:37:57.395Z,100239.13
2022-08-19T08:40:45.250Z,100229.84
2022-08-19T08:43:32.472Z,100228.84
2022-08-19T08:46:12.230Z,100228.00
2022-08-19T08:49:00.821Z,100219.50
2022-08-19T08:54:18.888Z,100225.56
2022-08-19T08:56:46.878Z,100216.81
2022-08-19T08:59:25.430Z,100220.63
2022-08-19T09:01:52.000Z,100222.50
2022-08-19T09:04:19.196Z,100224.44
2022-08-19T09:07:34.461Z,100222.00
2022-08-19T09:10:10.039Z,100221.34
2022-08-19T09:12:47.424Z,100218.69
2022-08-19T09:15:17.187Z,100221.09
2022-08-19T09:17:43.701Z,100239.03
2022-08-19T09:20:21.567Z,100230.16
2022-08-19T09:22:50.151Z,100233.34
2022-08-19T09:25:24.657Z,100235.25
2022-08-19T09:27:55.029Z,100234.28
2022-08-19T09:30:32.297Z,100234.59
2022-08-19T09:32:59.843Z,100232.88
2022-08-19T09:35:29.714Z,100230.34
2022-08-19T09:37:59.473Z,100227.28
2022-08-19T09:40:30.381Z,100223.31
2022-08-19T09:42:58.714Z,100227.22
2022-08-19T09:45:25.314Z,100216.72
2022-08-19T09:47:54.122Z,100231.72
2022-08-19T09:50:22.606Z,100234.38
2022-08-19T09:52:55.116Z,100238.84
2022-08-19T09:55:31.648Z,100240.25
2022-08-19T09:58:01.359Z,100238.28
2022-08-19T10:00:27.977Z,100232.25
2022-08-19T10:02:54.481Z,100242.69
2022-08-19T10:05:42.454Z,100242.25
2022-08-19T10:08:13.410Z,100248.59
2022-08-19T10:10:44.168Z,100253.72
2022-08-19T10:13:15.905Z,100248.38
2022-08-19T10:15:47.321Z,100235.13
2022-08-19T10:18:15.754Z,100237.00
2022-08-19T10:20:42.823Z,100229.56
2022-08-19T10:23:10.317Z,100236.56
2022-08-19T10:25:38.350Z,100239.06
2022-08-19T10:28:10.637Z,100239.31
2022-08-19T10:30:38.217Z,100244.75
2022-08-19T10:33:10.846Z,100239.63
2022-08-19T10:35:56.452Z,100248.59
2022-08-19T10:38:31.701Z,100246.03
2022-08-19T10:41:07.682Z,100229.03
2022-08-19T10:43:37.031Z,100242.47
2022-08-19T10:46:04.843Z,100230.38
2022-08-19T10:48:36.449Z,100232.63
2022-08-19T10:51:23.189Z,100243.31
2022-08-19T10:53:51.288Z,100235.94
2022-08-19T10:56:36.860Z,100241.09
2022-08-19T10:59:04.341Z,100234.53
2022-08-19T11:01:34.214Z,100236.03
2022-08-19T11:04:02.499Z,100240.53
2022-08-19T11:06:29.051Z,100233.94
2022-08-19T11:08:55.644Z,100225.97
2022-08-19T11:11:23.270Z,100223.78
2022-08-19T11:13:50.937Z,100225.19
2022-08-19T11:16:27.034Z,100225.69
2022-08-19T11:18:59.415Z,100230.38
2022-08-19T11:21:34.470Z,100233.00
2022-08-19T11:24:04.230Z,100238.72
2022-08-19T11:26:31.695Z,100240.75
2022-08-19T11:29:00.217Z,100228.19
2022-08-19T11:31:34.325Z,100234.69
2022-08-19T11:34:04.141Z,100236.31
2022-08-19T11:36:32.097Z,100231.25
2022-08-19T11:38:58.654Z,100226.41
2022-08-19T11:41:25.877Z,100223.94
2022-08-19T11:43:56.062Z,100231.34
2022-08-19T11:46:25.073Z,100221.81
2022-08-19T11:48:52.050Z,100210.84
2022-08-19T11:51:22.606Z,100215.78
2022-08-19T11:53:51.355Z,100219.09
2022-08-19T11:56:19.627Z,100212.56
2022-08-19T11:58:46.901Z,100212.69
2022-08-19T12:01:16.954Z,100220.94
2022-08-19T12:03:46.045Z,100215.16
2022-08-19T12:06:15.451Z,100212.84
2022-08-19T12:08:43.971Z,100212.28
2022-08-19T12:11:11.472Z,100213.47
2022-08-19T12:13:39.776Z,100209.13
2022-08-19T12:16:15.242Z,100219.44
2022-08-19T12:18:44.763Z,100235.94
2022-08-19T12:21:12.061Z,100232.63
2022-08-19T12:23:38.960Z,100224.25
2022-08-19T12:26:05.673Z,100223.94
2022-08-19T12:28:32.246Z,100231.81
2022-08-19T12:30:58.906Z,100220.53
2022-08-19T12:33:28.694Z,100221.34
2022-08-19T12:35:55.972Z,100231.69
2022-08-19T12:38:25.593Z,100226.38
2022-08-19T12:40:55.964Z,100232.41
2022-08-19T12:43:25.533Z,100226.56
2022-08-19T12:45:52.112Z,100223.56
2022-08-19T12:48:34.445Z,100218.97
2022-08-19T12:51:07.056Z,100231.38
2022-08-19T12:53:33.583Z,100217.09
2022-08-19T12:56:03.978Z,100232.75
2022-08-19T12:58:35.582Z,100231.81
2022-08-19T13:01:33.657Z,100235.44
2022-08-19T13:04:00.759Z,100239.03
2022-08-19T13:06:27.660Z,100235.50
2022-08-19T13:08:59.514Z,100242.03
2022-08-19T13:11:26.464Z,100239.34
2022-08-19T13:13:54.624Z,100239.25
2022-08-19T13:16:21.343Z,100235.06
2022-08-19T13:18:48.637Z,100253.16
2022-08-19T13:21:15.694Z,100237.47
2022-08-19T13:23:42.382Z,100249.34
2022-08-19T13:26:10.515Z,100237.84
2022-08-19T13:28:55.590Z,100241.22
2022-08-19T13:31:42.679Z,100236.84
2022-08-19T13:34:10.193Z,100243.63
2022-08-19T13:36:37.913Z,100240.88
2022-08-19T13:39:06.733Z,100243.06
2022-08-19T13:41:34.645Z,100232.41
2022-08-19T13:44:02.691Z,100235.22
2022-08-19T13:46:30.261Z,100234.44
2022-08-19T13:48:57.755Z,100236.00
2022-08-19T13:51:24.540Z,100237.59
2022-08-19T13:53:51.688Z,100235.81
2022-08-19T13:56:24.140Z,100231.88
2022-08-19T13:58:53.075Z,100230.25
2022-08-19T14:01:24.850Z,100226.28
2022-08-19T14:03:51.811Z,100236.59
2022-08-19T14:06:18.347Z,100238.69
2022-08-19T14:08:46.445Z,100242.09
2022-08-19T14:11:13.193Z,100238.19
2022-08-19T14:13:39.877Z,100213.97
2022-08-19T14:16:14.754Z,100227.81
2022-08-19T14:18:42.471Z,100212.88
2022-08-19T14:21:16.062Z,100232.88
2022-08-19T14:23:42.580Z,100226.84
2022-08-19T14:26:12.549Z,100221.19
2022-08-19T14:28:41.813Z,100223.41
2022-08-19T14:31:09.966Z,100223.63
2022-08-19T14:33:36.496Z,100216.53
2022-08-19T14:36:03.491Z,100220.88
2022-08-19T14:38:32.459Z,100220.03
2022-08-19T14:41:17.244Z,100228.41
2022-08-19T14:43:49.340Z,100218.75
2022-08-19T14:46:20.660Z,100232.16
2022-08-19T14:48:48.294Z,100242.34
2022-08-19T14:51:20.073Z,100232.41
2022-08-19T14:53:49.316Z,100240.66
2022-08-19T14:56:19.486Z,100227.06
2022-08-19T14:58:46.425Z,100235.56
2022-08-19T15:01:13.661Z,100234.94
2022-08-19T15:03:41.653Z,100228.28
2022-08-19T15:06:09.062Z,100233.91
2022-08-19T15:08:41.461Z,100229.50
2022-08-19T15:11:18.554Z,100232.13
2022-08-19T15:13:47.426Z,100229.69
2022-08-19T15:16:18.254Z,100228.59
2022-08-19T15:18:46.977Z,100224.72
2022-08-19T15:21:27.242Z,100227.88
2022-08-19T15:23:56.582Z,100227.13
2022-08-19T15:26:23.204Z,100228.06
2022-08-19T15:28:49.913Z,100223.91
2022-08-19T15:31:25.221Z,100226.66
2022-08-19T15:33:58.539Z,100234.28
2022-08-19T15:36:27.065Z,100231.38
2022-08-19T15:38:54.275Z,100226.09
2022-08-19T15:41:23.902Z,100232.56
2022-08-19T15:44:14.971Z,100226.16
2022-08-19T15:46:45.314Z,100218.59
2022-08-19T15:49:14.274Z,100229.16
2022-08-19T15:51:43.752Z,100225.19
2022-08-19T15:54:14.480Z,100236.22
2022-08-19T15:57:00.023Z,100234.22
2022-08-19T15:59:47.464Z,100237.03
2022-08-19T16:02:34.250Z,100236.44
2022-08-19T16:05:19.638Z,100245.75
2022-08-19T16:07:47.562Z,100245.19
2022-08-19T16:10:26.138Z,100242.69
2022-08-19T16:12:54.994Z,100235.38
2022-08-19T16:15:21.718Z,100247.72
2022-08-19T16:17:56.473Z,100257.00
2022-08-19T16:20:26.317Z,100249.13
2022-08-19T16:22:54.361Z,100246.31
2022-08-19T16:25:26.751Z,100244.22
2022-08-19T16:28:07.404Z,100257.34
2022-08-19T16:30:37.010Z,100251.75
2022-08-19T16:33:03.554Z,100249.16
2022-08-19T16:35:30.059Z,100256.88
2022-08-19T16:37:56.864Z,100257.38
2022-08-19T16:40:23.901Z,100259.03
2022-08-19T16:42:51.401Z,100258.38
2022-08-19T16:45:19.532Z,100254.59
2022-08-19T16:47:46.043Z,100256.88
2022-08-19T16:50:12.673Z,100264.09
2022-08-19T16:52:39.244Z,100266.66
2022-08-19T16:55:08.424Z,100266.84
2022-08-19T16:57:35.042Z,100272.88
2022-08-19T17:00:08.731Z,100264.69
2022-08-19T17:02:35.309Z,100269.66
2022-08-19T17:05:02.040Z,100269.25
2022-08-19T17:07:33.017Z,100266.19
2022-08-19T17:10:00.819Z,100270.69
2022-08-19T17:12:32.218Z,100274.38
2022-08-19T17:15:01.239Z,100270.38
2022-08-19T17:17:29.556Z,100281.94
2022-08-19T17:19:57.404Z,100282.50
2022-08-19T17:22:24.048Z,100283.63
2022-08-19T17:24:50.554Z,100273.66
2022-08-19T17:27:17.138Z,100275.91
2022-08-19T17:29:46.891Z,100275.53
2022-08-19T17:32:14.501Z,100270.03
2022-08-19T17:34:41.264Z,100260.81
2022-08-19T17:37:07.802Z,100264.34
2022-08-19T17:39:37.172Z,100268.47
2022-08-19T17:42:08.262Z,100277.06
2022-08-19T17:44:36.662Z,100294.41
2022-08-19T17:47:04.306Z,100290.28
2022-08-19T17:49:31.016Z,100283.03
2022-08-19T17:52:00.664Z,100288.63
2022-08-19T17:54:31.917Z,100284.28
2022-08-19T17:57:01.311Z,100291.28
2022-08-19T17:59:30.279Z,100283.97
2022-08-19T18:01:57.614Z,100287.09
2022-08-19T18:04:26.279Z,100284.97
2022-08-19T18:06:55.154Z,100285.00
2022-08-19T18:09:27.521Z,100288.44
2022-08-19T18:11:57.113Z,100294.53
2022-08-19T18:14:33.273Z,100295.25
2022-08-19T18:17:10.273Z,100303.16
2022-08-19T18:19:43.432Z,100296.13
2022-08-19T18:22:27.545Z,100303.00
2022-08-19T18:24:56.456Z,100300.75
2022-08-19T18:27:24.000Z,100308.00
2022-08-19T18:29:50.699Z,100309.22
2022-08-19T18:32:23.529Z,100318.94
2022-08-19T18:34:50.869Z,100313.47
2022-08-19T18:37:17.385Z,100321.25
2022-08-19T18:40:03.045Z,100324.44
2022-08-19T18:42:48.354Z,100316.97
2022-08-19T18:45:33.441Z,100321.13
2022-08-19T18:48:26.346Z,100321.63
2022-08-19T18:50:56.621Z,100315.66
2022-08-19T18:53:23.318Z,100324.88
2022-08-19T18:55:51.916Z,100330.44
2022-08-19T18:58:18.553Z,100336.25
2022-08-19T19:00:45.337Z,100332.47
2022-08-19T19:03:11.858Z,100334.34
2022-08-19T19:05:39.973Z,100342.38
2022-08-19T19:08:07.592Z,100355.34
2022-08-19T19:10:36.269Z,100347.56
2022-08-19T19:13:02.993Z,100346.78
2022-08-19T19:15:29.541Z,100346.16
2022-08-19T19:17:56.341Z,100349.03
2022-08-19T19:20:35.167Z,100356.34
2022-08-19T19:23:03.862Z,100357.66
2022-08-19T19:25:44.737Z,100356.41
2022-08-19T19:28:17.734Z,100359.25
2022-08-19T19:30:44.327Z,100365.03
2022-08-19T19:33:11.266Z,100367.59
2022-08-19T19:35:38.011Z,100366.31
2022-08-19T19:38:11.679Z,100365.69
2022-08-19T19:40:38.178Z,100374.13
2022-08-19T19:43:06.205Z,100370.28
2022-08-19T19:45:33.514Z,100374.56
2022-08-19T19:48:00.660Z,100383.47
2022-08-19T19:50:30.198Z,100383.31
2022-08-19T19:52:57.898Z,100381.06
2022-08-19T19:55:26.607Z,100384.53
2022-08-19T19:57:54.328Z,100399.16
2022-08-19T20:00:22.087Z,100392.16
2022-08-19T20:02:50.854Z,100386.03
2022-08-19T20:05:20.904Z,100391.09
2022-08-19T20:08:06.818Z,100399.78
2022-08-19T20:10:33.516Z,100396.53
2022-08-19T20:13:04.880Z,100394.72
2022-08-19T20:15:32.483Z,100407.44
2022-08-19T20:18:00.180Z,100396.31
2022-08-19T20:20:27.083Z,100398.44
2022-08-19T20:22:54.340Z,100399.19
2022-08-19T20:25:23.566Z,100410.00
2022-08-19T20:27:51.210Z,100403.59
2022-08-19T20:30:20.985Z,100410.13
2022-08-19T20:32:49.230Z,100412.41
2022-08-19T20:35:21.161Z,100415.41
2022-08-19T20:37:48.614Z,100413.88
2022-08-19T20:40:20.317Z,100414.00
2022-08-19T20:42:48.492Z,100408.59
2022-08-19T20:45:27.977Z,100407.56
2022-08-19T20:48:02.819Z,100413.63
2022-08-19T20:50:30.600Z,100414.22
2022-08-19T20:52:57.402Z,100415.81
2022-08-19T20:55:24.371Z,100423.69
2022-08-19T20:57:51.626Z,100422.28
2022-08-19T21:00:18.962Z,100412.69
2022-08-19T21:02:46.907Z,100417.22
2022-08-19T21:05:13.865Z,100418.06
2022-08-19T21:07:40.773Z,100415.25
2022-08-19T21:10:08.027Z,100418.56
2022-08-19T21:12:34.783Z,100420.59
2022-08-19T21:15:01.376Z,100430.88
2022-08-19T21:17:27.998Z,100427.47
2022-08-19T21:19:54.622Z,100419.38
2022-08-19T21:22:21.156Z,100418.72
2022-08-19T21:24:47.703Z,100423.38
2022-08-19T21:27:14.405Z,100426.00
2022-08-19T21:29:42.243Z,100425.22
2022-08-19T21:32:14.339Z,100418.22
2022-08-19T21:34:43.932Z,100425.00
2022-08-19T21:37:19.926Z,100427.69
2022-08-19T21:39:52.090Z,100421.72
2022-08-19T21:42:18.785Z,100422.63
2022-08-19T21:44:45.958Z,100419.94
2022-08-19T21:47:12.834Z,100427.22
2022-08-19T21:49:39.498Z,100427.09
2022-08-19T21:52:06.615Z,100426.22
2022-08-19T21:54:38.177Z,100434.19
2022-08-19T21:57:07.043Z,100423.13
2022-08-19T21:59:36.913Z,100427.09
2022-08-19T22:02:19.065Z,100424.09
2022-08-19T22:04:47.048Z,100421.63
2022-08-19T22:07:14.422Z,100423.31
2022-08-19T22:09:42.557Z,100433.09
2022-08-19T22:12:11.597Z,100422.50
2022-08-19T22:14:39.280Z,100429.38
2022-08-19T22:17:06.198Z,100423.19
2022-08-19T22:19:33.340Z,100431.88
2022-08-19T22:22:00.728Z,100428.91
2022-08-19T22:24:27.360Z,100424.63
2022-08-19T22:26:53.885Z,100426.91
2022-08-19T22:29:20.555Z,100429.78
2022-08-19T22:32:22.991Z,100431.59
2022-08-19T22:34:48.366Z,100432.75
2022-08-19T22:37:14.971Z,100435.91
2022-08-19T22:39:41.700Z,100437.72
2022-08-19T22:42:08.594Z,100440.25
2022-08-19T22:44:35.114Z,100432.69
2022-08-19T22:47:02.237Z,100424.47
2022-08-19T22:49:28.834Z,100433.75
2022-08-19T22:52:13.896Z,100424.09
2022-08-19T22:54:40.413Z,100435.78
2022-08-19T22:57:06.939Z,100433.34
2022-08-19T22:59:33.510Z,100443.00
2022-08-19T23:02:00.124Z,100441.97
2022-08-19T23:04:26.640Z,100448.91
2022-08-19T23:06:53.559Z,100448.91
2022-08-19T23:09:20.142Z,100450.22
2022-08-19T23:11:50.329Z,100455.88
2022-08-19T23:14:18.533Z,100455.38
2022-08-19T23:16:50.753Z,100455.03
2022-08-19T23:19:18.045Z,100448.38
2022-08-19T23:21:44.579Z,100449.66
2022-08-19T23:24:11.337Z,100450.03
2022-08-19T23:26:38.862Z,100451.69
2022-08-19T23:29:24.409Z,100446.63
2022-08-19T23:31:51.310Z,100443.78
2022-08-19T23:34:18.030Z,100447.88
2022-08-19T23:36:44.533Z,100445.66
2022-08-19T23:39:11.181Z,100441.34
2022-08-19T23:41:38.655Z,100445.63
2022-08-19T23:44:06.536Z,100427.50
2022-08-19T23:46:54.702Z,100433.31
2022-08-19T23:49:22.817Z,100433.69
2022-08-19T23:51:49.313Z,100429.09
2022-08-19T23:54:15.822Z,100429.47
2022-08-19T23:56:42.364Z,100425.03
2022-08-19T23:59:08.986Z,100437.63
